Terminal Aerodrome Forecast
Issued by NWS Mt. Holly, NJ

Home | Current Version | Previous Version | Text Only | Print | Product List | Glossary On
Versions: 1 2 3 4 5 6 7 8 9 10 11 12 13 14 15 16 17 18 19 20 21 22 23 24 25
000
FTUS41 KPHI 231929 AAA
TAFRDG
TAF AMD
KRDG 231929Z 2319/2418 07018G28KT 6SM -RA BR OVC025
      TEMPO 2319/2322 -RAPL
     FM232200 05025G30KT 3SM -RA BR OVC012
     FM240000 02018G28KT 2SM RA OVC007
     FM240800 35014G22KT 2SM -RA BR OVC007=

USA.gov is the U.S. government's official web portal to all federal, state and local government web resources and services.